sensor_id;sensor_type;location;lat;lon;timestamp;P1;durP1;ratioP1;P2;durP2;ratioP2
75520;SDS011;64102;48.628;9.002;2023-12-07T00:01:04;11.13;;;2.00;;
75520;SDS011;64102;48.628;9.002;2023-12-07T00:03:29;16.20;;;2.40;;
75520;SDS011;64102;48.628;9.002;2023-12-07T00:05:55;11.27;;;1.92;;
75520;SDS011;64102;48.628;9.002;2023-12-07T00:08:20;10.82;;;1.50;;
75520;SDS011;64102;48.628;9.002;2023-12-07T00:10:45;11.20;;;1.97;;
75520;SDS011;64102;48.628;9.002;2023-12-07T00:13:11;9.97;;;1.63;;
75520;SDS011;64102;48.628;9.002;2023-12-07T00:15:36;9.65;;;2.20;;
75520;SDS011;64102;48.628;9.002;2023-12-07T00:18:02;9.27;;;1.23;;
75520;SDS011;64102;48.628;9.002;2023-12-07T00:20:28;9.75;;;1.42;;
75520;SDS011;64102;48.628;9.002;2023-12-07T00:22:54;10.38;;;1.63;;
75520;SDS011;64102;48.628;9.002;2023-12-07T00:25:19;11.82;;;1.80;;
75520;SDS011;64102;48.628;9.002;2023-12-07T00:27:44;8.15;;;1.17;;
75520;SDS011;64102;48.628;9.002;2023-12-07T00:30:10;10.20;;;1.15;;
75520;SDS011;64102;48.628;9.002;2023-12-07T00:32:36;11.10;;;1.67;;
75520;SDS011;64102;48.628;9.002;2023-12-07T00:35:01;9.00;;;1.40;;
75520;SDS011;64102;48.628;9.002;2023-12-07T00:37:27;8.52;;;1.40;;
75520;SDS011;64102;48.628;9.002;2023-12-07T00:39:52;8.97;;;1.33;;
75520;SDS011;64102;48.628;9.002;2023-12-07T00:42:17;8.77;;;1.20;;
75520;SDS011;64102;48.628;9.002;2023-12-07T00:44:43;9.23;;;1.70;;
75520;SDS011;64102;48.628;9.002;2023-12-07T00:47:08;12.90;;;2.30;;
75520;SDS011;64102;48.628;9.002;2023-12-07T00:49:37;9.23;;;1.48;;
75520;SDS011;64102;48.628;9.002;2023-12-07T00:52:05;9.02;;;1.27;;
75520;SDS011;64102;48.628;9.002;2023-12-07T00:54:31;8.63;;;1.48;;
75520;SDS011;64102;48.628;9.002;2023-12-07T00:56:56;10.63;;;1.80;;
75520;SDS011;64102;48.628;9.002;2023-12-07T00:59:22;8.65;;;1.55;;
75520;SDS011;64102;48.628;9.002;2023-12-07T01:01:48;10.32;;;1.75;;
75520;SDS011;64102;48.628;9.002;2023-12-07T01:04:14;9.73;;;1.73;;
75520;SDS011;64102;48.628;9.002;2023-12-07T01:06:39;10.37;;;1.37;;
75520;SDS011;64102;48.628;9.002;2023-12-07T01:09:04;8.17;;;1.47;;
75520;SDS011;64102;48.628;9.002;2023-12-07T01:11:29;9.53;;;1.80;;
75520;SDS011;64102;48.628;9.002;2023-12-07T01:13:55;8.93;;;1.60;;
75520;SDS011;64102;48.628;9.002;2023-12-07T01:16:20;6.97;;;0.90;;
75520;SDS011;64102;48.628;9.002;2023-12-07T01:18:45;9.13;;;1.43;;
75520;SDS011;64102;48.628;9.002;2023-12-07T01:21:11;11.73;;;1.37;;
75520;SDS011;64102;48.628;9.002;2023-12-07T01:23:37;9.93;;;2.08;;
75520;SDS011;64102;48.628;9.002;2023-12-07T01:26:02;10.55;;;1.70;;
75520;SDS011;64102;48.628;9.002;2023-12-07T01:28:28;9.40;;;1.38;;
75520;SDS011;64102;48.628;9.002;2023-12-07T01:30:53;9.40;;;1.88;;
75520;SDS011;64102;48.628;9.002;2023-12-07T01:33:19;12.68;;;1.73;;
75520;SDS011;64102;48.628;9.002;2023-12-07T01:35:45;11.00;;;1.60;;
75520;SDS011;64102;48.628;9.002;2023-12-07T01:38:10;10.93;;;1.57;;
75520;SDS011;64102;48.628;9.002;2023-12-07T01:40:35;10.70;;;1.95;;
75520;SDS011;64102;48.628;9.002;2023-12-07T01:43:01;9.85;;;1.83;;
75520;SDS011;64102;48.628;9.002;2023-12-07T01:45:26;14.20;;;1.93;;
75520;SDS011;64102;48.628;9.002;2023-12-07T01:47:52;8.63;;;1.33;;
75520;SDS011;64102;48.628;9.002;2023-12-07T01:50:19;9.85;;;1.33;;
75520;SDS011;64102;48.628;9.002;2023-12-07T01:52:48;8.90;;;1.38;;
75520;SDS011;64102;48.628;9.002;2023-12-07T01:55:16;9.50;;;1.45;;
75520;SDS011;64102;48.628;9.002;2023-12-07T01:57:43;11.70;;;1.35;;
75520;SDS011;64102;48.628;9.002;2023-12-07T02:00:10;12.32;;;1.88;;
75520;SDS011;64102;48.628;9.002;2023-12-07T02:02:37;9.35;;;1.58;;
75520;SDS011;64102;48.628;9.002;2023-12-07T02:05:03;14.00;;;1.70;;
75520;SDS011;64102;48.628;9.002;2023-12-07T02:07:29;8.90;;;1.40;;
75520;SDS011;64102;48.628;9.002;2023-12-07T02:09:56;10.82;;;1.80;;
75520;SDS011;64102;48.628;9.002;2023-12-07T02:12:23;10.70;;;2.08;;
75520;SDS011;64102;48.628;9.002;2023-12-07T02:14:49;9.50;;;2.08;;
75520;SDS011;64102;48.628;9.002;2023-12-07T02:17:24;11.18;;;2.03;;
75520;SDS011;64102;48.628;9.002;2023-12-07T02:20:04;11.75;;;1.85;;
75520;SDS011;64102;48.628;9.002;2023-12-07T02:22:43;10.02;;;1.77;;
75520;SDS011;64102;48.628;9.002;2023-12-07T02:25:18;8.00;;;1.58;;
75520;SDS011;64102;48.628;9.002;2023-12-07T02:27:48;12.40;;;1.88;;
75520;SDS011;64102;48.628;9.002;2023-12-07T02:30:14;8.57;;;1.65;;
75520;SDS011;64102;48.628;9.002;2023-12-07T02:32:40;8.65;;;1.23;;
75520;SDS011;64102;48.628;9.002;2023-12-07T02:35:09;9.85;;;1.25;;
75520;SDS011;64102;48.628;9.002;2023-12-07T02:37:39;9.23;;;1.40;;
75520;SDS011;64102;48.628;9.002;2023-12-07T02:40:07;8.43;;;1.10;;
75520;SDS011;64102;48.628;9.002;2023-12-07T02:42:35;10.35;;;1.60;;
75520;SDS011;64102;48.628;9.002;2023-12-07T02:45:06;10.07;;;1.42;;
75520;SDS011;64102;48.628;9.002;2023-12-07T02:47:32;9.93;;;1.48;;
75520;SDS011;64102;48.628;9.002;2023-12-07T02:49:58;9.60;;;1.52;;
75520;SDS011;64102;48.628;9.002;2023-12-07T02:52:23;9.90;;;1.57;;
75520;SDS011;64102;48.628;9.002;2023-12-07T02:54:49;9.55;;;1.50;;
75520;SDS011;64102;48.628;9.002;2023-12-07T02:57:14;9.50;;;1.37;;
75520;SDS011;64102;48.628;9.002;2023-12-07T02:59:40;9.70;;;1.30;;
75520;SDS011;64102;48.628;9.002;2023-12-07T03:02:05;10.68;;;1.90;;
75520;SDS011;64102;48.628;9.002;2023-12-07T03:04:31;11.23;;;1.33;;
75520;SDS011;64102;48.628;9.002;2023-12-07T03:06:56;10.47;;;1.40;;
75520;SDS011;64102;48.628;9.002;2023-12-07T03:09:21;10.80;;;1.20;;
75520;SDS011;64102;48.628;9.002;2023-12-07T03:11:47;10.67;;;1.73;;
75520;SDS011;64102;48.628;9.002;2023-12-07T03:14:12;10.10;;;1.63;;
75520;SDS011;64102;48.628;9.002;2023-12-07T03:16:38;9.68;;;0.80;;
75520;SDS011;64102;48.628;9.002;2023-12-07T03:19:04;8.60;;;1.67;;
75520;SDS011;64102;48.628;9.002;2023-12-07T03:21:29;9.23;;;1.25;;
75520;SDS011;64102;48.628;9.002;2023-12-07T03:23:54;9.53;;;1.00;;
75520;SDS011;64102;48.628;9.002;2023-12-07T03:26:20;11.33;;;1.90;;
75520;SDS011;64102;48.628;9.002;2023-12-07T03:28:45;8.70;;;1.25;;
75520;SDS011;64102;48.628;9.002;2023-12-07T03:31:11;10.07;;;2.17;;
75520;SDS011;64102;48.628;9.002;2023-12-07T03:33:36;12.97;;;1.90;;
75520;SDS011;64102;48.628;9.002;2023-12-07T03:36:03;10.55;;;1.20;;
75520;SDS011;64102;48.628;9.002;2023-12-07T03:38:29;9.57;;;1.70;;
75520;SDS011;64102;48.628;9.002;2023-12-07T03:40:54;9.13;;;1.50;;
75520;SDS011;64102;48.628;9.002;2023-12-07T03:43:19;9.85;;;1.35;;
75520;SDS011;64102;48.628;9.002;2023-12-07T03:45:45;8.27;;;1.08;;
75520;SDS011;64102;48.628;9.002;2023-12-07T03:48:11;9.70;;;1.27;;
75520;SDS011;64102;48.628;9.002;2023-12-07T03:50:36;13.38;;;1.65;;
75520;SDS011;64102;48.628;9.002;2023-12-07T03:53:02;11.13;;;1.53;;
75520;SDS011;64102;48.628;9.002;2023-12-07T03:55:27;10.88;;;1.17;;
75520;SDS011;64102;48.628;9.002;2023-12-07T03:57:52;10.32;;;1.65;;
75520;SDS011;64102;48.628;9.002;2023-12-07T04:00:18;11.03;;;1.70;;
75520;SDS011;64102;48.628;9.002;2023-12-07T04:02:43;9.55;;;1.27;;
75520;SDS011;64102;48.628;9.002;2023-12-07T04:05:08;10.27;;;1.27;;
75520;SDS011;64102;48.628;9.002;2023-12-07T04:07:34;10.60;;;1.37;;
75520;SDS011;64102;48.628;9.002;2023-12-07T04:09:59;10.25;;;1.88;;
75520;SDS011;64102;48.628;9.002;2023-12-07T04:12:25;10.13;;;1.13;;
75520;SDS011;64102;48.628;9.002;2023-12-07T04:14:50;10.52;;;1.17;;
75520;SDS011;64102;48.628;9.002;2023-12-07T04:17:16;12.63;;;1.98;;
75520;SDS011;64102;48.628;9.002;2023-12-07T04:19:42;9.55;;;1.65;;
75520;SDS011;64102;48.628;9.002;2023-12-07T04:22:07;9.57;;;1.33;;
75520;SDS011;64102;48.628;9.002;2023-12-07T04:24:33;11.50;;;2.10;;
75520;SDS011;64102;48.628;9.002;2023-12-07T04:26:58;11.30;;;2.00;;
75520;SDS011;64102;48.628;9.002;2023-12-07T04:29:23;8.67;;;1.00;;
75520;SDS011;64102;48.628;9.002;2023-12-07T04:31:49;9.20;;;1.80;;
75520;SDS011;64102;48.628;9.002;2023-12-07T04:34:14;9.17;;;1.20;;
75520;SDS011;64102;48.628;9.002;2023-12-07T04:36:39;12.55;;;1.80;;
75520;SDS011;64102;48.628;9.002;2023-12-07T04:39:05;9.27;;;1.43;;
75520;SDS011;64102;48.628;9.002;2023-12-07T04:41:30;10.20;;;1.50;;
75520;SDS011;64102;48.628;9.002;2023-12-07T04:43:55;10.40;;;1.90;;
75520;SDS011;64102;48.628;9.002;2023-12-07T04:46:21;8.73;;;1.10;;
75520;SDS011;64102;48.628;9.002;2023-12-07T04:48:46;10.47;;;1.60;;
75520;SDS011;64102;48.628;9.002;2023-12-07T04:51:11;9.60;;;0.93;;
75520;SDS011;64102;48.628;9.002;2023-12-07T04:53:37;8.33;;;1.10;;
75520;SDS011;64102;48.628;9.002;2023-12-07T04:56:02;9.97;;;1.40;;
75520;SDS011;64102;48.628;9.002;2023-12-07T04:58:27;7.20;;;0.95;;
75520;SDS011;64102;48.628;9.002;2023-12-07T05:00:53;8.80;;;1.47;;
75520;SDS011;64102;48.628;9.002;2023-12-07T05:03:18;8.87;;;1.50;;
75520;SDS011;64102;48.628;9.002;2023-12-07T05:05:43;9.63;;;1.50;;
75520;SDS011;64102;48.628;9.002;2023-12-07T05:08:09;10.50;;;1.97;;
75520;SDS011;64102;48.628;9.002;2023-12-07T05:10:34;11.33;;;2.10;;
75520;SDS011;64102;48.628;9.002;2023-12-07T05:13:00;10.45;;;1.10;;
75520;SDS011;64102;48.628;9.002;2023-12-07T05:15:25;16.88;;;1.85;;
75520;SDS011;64102;48.628;9.002;2023-12-07T05:17:51;10.67;;;1.53;;
75520;SDS011;64102;48.628;9.002;2023-12-07T05:20:16;10.88;;;1.60;;
75520;SDS011;64102;48.628;9.002;2023-12-07T05:22:43;12.05;;;1.70;;
75520;SDS011;64102;48.628;9.002;2023-12-07T05:25:08;11.63;;;1.77;;
75520;SDS011;64102;48.628;9.002;2023-12-07T05:27:34;11.65;;;1.25;;
75520;SDS011;64102;48.628;9.002;2023-12-07T05:29:59;11.80;;;1.77;;
75520;SDS011;64102;48.628;9.002;2023-12-07T05:32:25;21.33;;;5.57;;
75520;SDS011;64102;48.628;9.002;2023-12-07T05:34:50;13.88;;;3.63;;
75520;SDS011;64102;48.628;9.002;2023-12-07T05:37:15;12.00;;;1.93;;
75520;SDS011;64102;48.628;9.002;2023-12-07T05:39:41;10.57;;;1.50;;
75520;SDS011;64102;48.628;9.002;2023-12-07T05:42:06;10.03;;;1.77;;
75520;SDS011;64102;48.628;9.002;2023-12-07T05:44:31;11.87;;;1.83;;
75520;SDS011;64102;48.628;9.002;2023-12-07T05:46:57;10.47;;;1.60;;
75520;SDS011;64102;48.628;9.002;2023-12-07T05:49:22;9.27;;;1.10;;
75520;SDS011;64102;48.628;9.002;2023-12-07T05:51:48;10.70;;;1.45;;
75520;SDS011;64102;48.628;9.002;2023-12-07T05:54:14;10.90;;;2.10;;
75520;SDS011;64102;48.628;9.002;2023-12-07T05:56:39;9.77;;;1.20;;
75520;SDS011;64102;48.628;9.002;2023-12-07T05:59:05;8.43;;;1.30;;
75520;SDS011;64102;48.628;9.002;2023-12-07T06:01:31;10.95;;;1.60;;
75520;SDS011;64102;48.628;9.002;2023-12-07T06:03:57;10.10;;;1.38;;
75520;SDS011;64102;48.628;9.002;2023-12-07T06:06:23;10.63;;;1.92;;
75520;SDS011;64102;48.628;9.002;2023-12-07T06:08:48;9.38;;;1.45;;
75520;SDS011;64102;48.628;9.002;2023-12-07T06:11:13;9.82;;;1.52;;
75520;SDS011;64102;48.628;9.002;2023-12-07T06:13:39;9.60;;;1.65;;
75520;SDS011;64102;48.628;9.002;2023-12-07T06:16:04;8.73;;;1.03;;
75520;SDS011;64102;48.628;9.002;2023-12-07T06:18:30;8.38;;;1.00;;
75520;SDS011;64102;48.628;9.002;2023-12-07T06:20:55;11.73;;;1.73;;
75520;SDS011;64102;48.628;9.002;2023-12-07T06:23:20;10.68;;;1.38;;
75520;SDS011;64102;48.628;9.002;2023-12-07T06:25:46;11.00;;;1.52;;
75520;SDS011;64102;48.628;9.002;2023-12-07T06:28:12;9.63;;;1.63;;
75520;SDS011;64102;48.628;9.002;2023-12-07T06:30:37;8.93;;;1.65;;
75520;SDS011;64102;48.628;9.002;2023-12-07T06:33:03;7.50;;;0.98;;
75520;SDS011;64102;48.628;9.002;2023-12-07T06:35:29;9.57;;;1.58;;
75520;SDS011;64102;48.628;9.002;2023-12-07T06:37:55;8.90;;;1.80;;
75520;SDS011;64102;48.628;9.002;2023-12-07T06:40:21;11.63;;;1.45;;
75520;SDS011;64102;48.628;9.002;2023-12-07T06:42:46;8.52;;;1.10;;
75520;SDS011;64102;48.628;9.002;2023-12-07T06:45:13;9.45;;;1.20;;
75520;SDS011;64102;48.628;9.002;2023-12-07T06:47:39;15.55;;;3.25;;
75520;SDS011;64102;48.628;9.002;2023-12-07T06:50:07;12.40;;;2.50;;
75520;SDS011;64102;48.628;9.002;2023-12-07T06:52:34;12.70;;;1.75;;
75520;SDS011;64102;48.628;9.002;2023-12-07T06:55:00;10.43;;;1.45;;
75520;SDS011;64102;48.628;9.002;2023-12-07T06:57:26;12.35;;;2.08;;
75520;SDS011;64102;48.628;9.002;2023-12-07T06:59:51;13.10;;;2.13;;
75520;SDS011;64102;48.628;9.002;2023-12-07T07:02:16;11.80;;;2.47;;
75520;SDS011;64102;48.628;9.002;2023-12-07T07:04:41;12.03;;;2.80;;
75520;SDS011;64102;48.628;9.002;2023-12-07T07:07:08;10.48;;;2.15;;
75520;SDS011;64102;48.628;9.002;2023-12-07T07:09:33;11.80;;;1.77;;
75520;SDS011;64102;48.628;9.002;2023-12-07T07:11:59;12.63;;;2.38;;
75520;SDS011;64102;48.628;9.002;2023-12-07T07:14:25;15.15;;;2.35;;
75520;SDS011;64102;48.628;9.002;2023-12-07T07:16:50;11.30;;;2.43;;
75520;SDS011;64102;48.628;9.002;2023-12-07T07:19:17;18.45;;;3.30;;
75520;SDS011;64102;48.628;9.002;2023-12-07T07:21:42;24.92;;;4.35;;
75520;SDS011;64102;48.628;9.002;2023-12-07T07:24:08;15.98;;;3.05;;
75520;SDS011;64102;48.628;9.002;2023-12-07T07:26:34;13.40;;;3.67;;
75520;SDS011;64102;48.628;9.002;2023-12-07T07:28:59;13.87;;;2.60;;
75520;SDS011;64102;48.628;9.002;2023-12-07T07:31:25;14.75;;;2.55;;
75520;SDS011;64102;48.628;9.002;2023-12-07T07:33:50;14.07;;;2.70;;
75520;SDS011;64102;48.628;9.002;2023-12-07T07:36:16;12.35;;;2.53;;
75520;SDS011;64102;48.628;9.002;2023-12-07T07:38:41;12.53;;;3.47;;
75520;SDS011;64102;48.628;9.002;2023-12-07T07:41:08;13.45;;;3.22;;
75520;SDS011;64102;48.628;9.002;2023-12-07T07:43:34;9.13;;;1.45;;
75520;SDS011;64102;48.628;9.002;2023-12-07T07:45:59;9.80;;;1.27;;
75520;SDS011;64102;48.628;9.002;2023-12-07T07:48:25;12.07;;;1.80;;
75520;SDS011;64102;48.628;9.002;2023-12-07T07:50:51;14.82;;;2.10;;
75520;SDS011;64102;48.628;9.002;2023-12-07T07:53:16;13.90;;;2.15;;
75520;SDS011;64102;48.628;9.002;2023-12-07T07:55:42;10.82;;;2.03;;
75520;SDS011;64102;48.628;9.002;2023-12-07T07:58:07;11.68;;;2.05;;
75520;SDS011;64102;48.628;9.002;2023-12-07T08:00:33;11.63;;;2.15;;
75520;SDS011;64102;48.628;9.002;2023-12-07T08:02:59;10.65;;;2.28;;
75520;SDS011;64102;48.628;9.002;2023-12-07T08:05:25;10.35;;;2.25;;
75520;SDS011;64102;48.628;9.002;2023-12-07T08:07:50;11.93;;;2.60;;
75520;SDS011;64102;48.628;9.002;2023-12-07T08:10:16;10.35;;;2.47;;
75520;SDS011;64102;48.628;9.002;2023-12-07T08:12:41;14.75;;;2.72;;
75520;SDS011;64102;48.628;9.002;2023-12-07T08:15:07;11.27;;;2.73;;
75520;SDS011;64102;48.628;9.002;2023-12-07T08:17:36;10.60;;;2.47;;
75520;SDS011;64102;48.628;9.002;2023-12-07T08:20:08;12.35;;;3.10;;
75520;SDS011;64102;48.628;9.002;2023-12-07T08:22:40;13.68;;;2.83;;
75520;SDS011;64102;48.628;9.002;2023-12-07T08:25:06;12.00;;;2.63;;
75520;SDS011;64102;48.628;9.002;2023-12-07T08:27:32;12.38;;;3.20;;
75520;SDS011;64102;48.628;9.002;2023-12-07T08:29:58;14.93;;;3.97;;
75520;SDS011;64102;48.628;9.002;2023-12-07T08:32:24;15.05;;;3.60;;
75520;SDS011;64102;48.628;9.002;2023-12-07T08:34:51;13.07;;;3.08;;
75520;SDS011;64102;48.628;9.002;2023-12-07T08:37:16;9.88;;;2.65;;
75520;SDS011;64102;48.628;9.002;2023-12-07T08:39:42;11.30;;;2.37;;
75520;SDS011;64102;48.628;9.002;2023-12-07T08:42:07;10.50;;;2.27;;
75520;SDS011;64102;48.628;9.002;2023-12-07T08:44:33;9.65;;;2.20;;
75520;SDS011;64102;48.628;9.002;2023-12-07T08:46:58;10.07;;;2.70;;
75520;SDS011;64102;48.628;9.002;2023-12-07T08:49:24;9.25;;;1.88;;
75520;SDS011;64102;48.628;9.002;2023-12-07T08:51:49;9.07;;;1.80;;
75520;SDS011;64102;48.628;9.002;2023-12-07T08:54:14;8.93;;;2.05;;
75520;SDS011;64102;48.628;9.002;2023-12-07T08:56:40;8.93;;;1.93;;
75520;SDS011;64102;48.628;9.002;2023-12-07T08:59:09;10.52;;;2.10;;
75520;SDS011;64102;48.628;9.002;2023-12-07T09:01:34;9.70;;;2.10;;
75520;SDS011;64102;48.628;9.002;2023-12-07T09:03:59;10.50;;;2.10;;
75520;SDS011;64102;48.628;9.002;2023-12-07T09:06:25;9.88;;;2.30;;
75520;SDS011;64102;48.628;9.002;2023-12-07T09:08:50;9.83;;;1.93;;
75520;SDS011;64102;48.628;9.002;2023-12-07T09:11:16;9.67;;;1.93;;
75520;SDS011;64102;48.628;9.002;2023-12-07T09:13:41;8.90;;;2.05;;
75520;SDS011;64102;48.628;9.002;2023-12-07T09:16:06;10.10;;;2.13;;
75520;SDS011;64102;48.628;9.002;2023-12-07T09:18:33;9.00;;;1.40;;
75520;SDS011;64102;48.628;9.002;2023-12-07T09:20:59;9.57;;;2.35;;
75520;SDS011;64102;48.628;9.002;2023-12-07T09:23:25;8.27;;;1.90;;
75520;SDS011;64102;48.628;9.002;2023-12-07T09:25:52;9.45;;;1.75;;
75520;SDS011;64102;48.628;9.002;2023-12-07T09:28:17;7.67;;;1.63;;
75520;SDS011;64102;48.628;9.002;2023-12-07T09:30:42;8.27;;;1.50;;
75520;SDS011;64102;48.628;9.002;2023-12-07T09:33:09;8.00;;;1.63;;
75520;SDS011;64102;48.628;9.002;2023-12-07T09:35:34;8.90;;;1.90;;
75520;SDS011;64102;48.628;9.002;2023-12-07T09:38:00;8.70;;;2.10;;
75520;SDS011;64102;48.628;9.002;2023-12-07T09:40:25;7.80;;;1.58;;
75520;SDS011;64102;48.628;9.002;2023-12-07T09:42:52;9.85;;;1.67;;
75520;SDS011;64102;48.628;9.002;2023-12-07T09:45:19;8.68;;;1.83;;
75520;SDS011;64102;48.628;9.002;2023-12-07T09:47:48;8.23;;;1.80;;
75520;SDS011;64102;48.628;9.002;2023-12-07T09:50:15;7.70;;;1.35;;
75520;SDS011;64102;48.628;9.002;2023-12-07T09:52:48;9.60;;;2.05;;
75520;SDS011;64102;48.628;9.002;2023-12-07T09:55:16;8.13;;;1.50;;
75520;SDS011;64102;48.628;9.002;2023-12-07T09:57:45;8.98;;;1.85;;
75520;SDS011;64102;48.628;9.002;2023-12-07T10:00:11;9.35;;;1.70;;
75520;SDS011;64102;48.628;9.002;2023-12-07T10:02:39;6.47;;;0.52;;
75520;SDS011;64102;48.628;9.002;2023-12-07T10:05:06;5.07;;;0.47;;
75520;SDS011;64102;48.628;9.002;2023-12-07T10:07:35;5.90;;;0.50;;
75520;SDS011;64102;48.628;9.002;2023-12-07T10:10:02;5.07;;;0.45;;
75520;SDS011;64102;48.628;9.002;2023-12-07T10:12:29;5.65;;;0.52;;
75520;SDS011;64102;48.628;9.002;2023-12-07T10:15:01;4.80;;;0.32;;
75520;SDS011;64102;48.628;9.002;2023-12-07T10:17:43;4.60;;;0.40;;
75520;SDS011;64102;48.628;9.002;2023-12-07T10:20:11;5.53;;;0.40;;
75520;SDS011;64102;48.628;9.002;2023-12-07T10:22:38;4.82;;;0.40;;
75520;SDS011;64102;48.628;9.002;2023-12-07T10:25:04;3.65;;;0.30;;
75520;SDS011;64102;48.628;9.002;2023-12-07T10:27:30;4.18;;;0.40;;
75520;SDS011;64102;48.628;9.002;2023-12-07T10:29:56;5.78;;;0.40;;
75520;SDS011;64102;48.628;9.002;2023-12-07T10:32:23;5.95;;;0.50;;
75520;SDS011;64102;48.628;9.002;2023-12-07T10:34:48;4.83;;;0.30;;
75520;SDS011;64102;48.628;9.002;2023-12-07T10:37:14;4.60;;;0.20;;
75520;SDS011;64102;48.628;9.002;2023-12-07T10:39:39;3.10;;;0.30;;
75520;SDS011;64102;48.628;9.002;2023-12-07T10:42:05;4.53;;;0.30;;
75520;SDS011;64102;48.628;9.002;2023-12-07T10:44:35;4.72;;;0.20;;
75520;SDS011;64102;48.628;9.002;2023-12-07T10:47:06;4.75;;;0.40;;
75520;SDS011;64102;48.628;9.002;2023-12-07T10:49:35;4.78;;;0.35;;
75520;SDS011;64102;48.628;9.002;2023-12-07T10:52:06;6.47;;;0.90;;
75520;SDS011;64102;48.628;9.002;2023-12-07T10:54:38;4.75;;;0.40;;
75520;SDS011;64102;48.628;9.002;2023-12-07T10:57:13;5.45;;;0.57;;
75520;SDS011;64102;48.628;9.002;2023-12-07T10:59:39;5.20;;;0.43;;
75520;SDS011;64102;48.628;9.002;2023-12-07T11:02:08;4.63;;;0.50;;
75520;SDS011;64102;48.628;9.002;2023-12-07T11:04:37;4.90;;;0.50;;
75520;SDS011;64102;48.628;9.002;2023-12-07T11:07:06;3.55;;;0.35;;
75520;SDS011;64102;48.628;9.002;2023-12-07T11:09:35;3.42;;;0.32;;
75520;SDS011;64102;48.628;9.002;2023-12-07T11:12:07;4.20;;;0.50;;
75520;SDS011;64102;48.628;9.002;2023-12-07T11:14:38;5.47;;;0.40;;
75520;SDS011;64102;48.628;9.002;2023-12-07T11:17:04;5.80;;;0.40;;
75520;SDS011;64102;48.628;9.002;2023-12-07T11:21:59;4.63;;;0.40;;
75520;SDS011;64102;48.628;9.002;2023-12-07T11:24:24;4.80;;;0.38;;
75520;SDS011;64102;48.628;9.002;2023-12-07T11:26:53;5.45;;;0.40;;
75520;SDS011;64102;48.628;9.002;2023-12-07T11:29:20;4.95;;;0.60;;
75520;SDS011;64102;48.628;9.002;2023-12-07T11:31:46;4.88;;;0.57;;
75520;SDS011;64102;48.628;9.002;2023-12-07T11:34:11;4.32;;;0.30;;
75520;SDS011;64102;48.628;9.002;2023-12-07T11:36:40;4.85;;;0.40;;
75520;SDS011;64102;48.628;9.002;2023-12-07T11:41:46;4.63;;;0.30;;
75520;SDS011;64102;48.628;9.002;2023-12-07T11:44:15;4.32;;;0.30;;
75520;SDS011;64102;48.628;9.002;2023-12-07T11:46:42;4.68;;;0.40;;
75520;SDS011;64102;48.628;9.002;2023-12-07T11:49:08;5.60;;;0.40;;
75520;SDS011;64102;48.628;9.002;2023-12-07T11:51:35;4.70;;;0.40;;
75520;SDS011;64102;48.628;9.002;2023-12-07T11:54:01;4.53;;;0.40;;
75520;SDS011;64102;48.628;9.002;2023-12-07T11:56:27;3.10;;;0.20;;
75520;SDS011;64102;48.628;9.002;2023-12-07T11:58:52;4.47;;;0.30;;
75520;SDS011;64102;48.628;9.002;2023-12-07T12:01:18;4.45;;;0.30;;
75520;SDS011;64102;48.628;9.002;2023-12-07T12:03:43;3.67;;;0.20;;
75520;SDS011;64102;48.628;9.002;2023-12-07T12:06:08;5.03;;;0.30;;
75520;SDS011;64102;48.628;9.002;2023-12-07T12:08:36;3.63;;;0.32;;
75520;SDS011;64102;48.628;9.002;2023-12-07T12:11:01;3.58;;;0.22;;
75520;SDS011;64102;48.628;9.002;2023-12-07T12:13:30;3.20;;;0.20;;
75520;SDS011;64102;48.628;9.002;2023-12-07T12:15:58;3.13;;;0.20;;
75520;SDS011;64102;48.628;9.002;2023-12-07T12:18:25;4.30;;;0.28;;
75520;SDS011;64102;48.628;9.002;2023-12-07T12:20:51;4.18;;;0.30;;
75520;SDS011;64102;48.628;9.002;2023-12-07T12:23:18;3.25;;;0.20;;
75520;SDS011;64102;48.628;9.002;2023-12-07T12:25:43;4.90;;;0.30;;
75520;SDS011;64102;48.628;9.002;2023-12-07T12:28:09;4.75;;;0.45;;
75520;SDS011;64102;48.628;9.002;2023-12-07T12:30:35;4.53;;;0.30;;
75520;SDS011;64102;48.628;9.002;2023-12-07T12:33:01;4.60;;;0.30;;
75520;SDS011;64102;48.628;9.002;2023-12-07T12:35:27;1.83;;;0.20;;
75520;SDS011;64102;48.628;9.002;2023-12-07T12:37:53;3.05;;;0.20;;
75520;SDS011;64102;48.628;9.002;2023-12-07T12:40:20;3.42;;;0.20;;
75520;SDS011;64102;48.628;9.002;2023-12-07T12:42:47;3.63;;;0.30;;
75520;SDS011;64102;48.628;9.002;2023-12-07T12:45:15;4.80;;;0.30;;
75520;SDS011;64102;48.628;9.002;2023-12-07T12:47:43;4.70;;;0.30;;
75520;SDS011;64102;48.628;9.002;2023-12-07T12:50:10;4.45;;;0.35;;
75520;SDS011;64102;48.628;9.002;2023-12-07T12:52:37;4.38;;;0.30;;
75520;SDS011;64102;48.628;9.002;2023-12-07T12:55:10;4.13;;;0.22;;
75520;SDS011;64102;48.628;9.002;2023-12-07T12:57:36;4.00;;;0.28;;
75520;SDS011;64102;48.628;9.002;2023-12-07T13:00:03;5.97;;;0.40;;
75520;SDS011;64102;48.628;9.002;2023-12-07T13:02:29;4.57;;;0.30;;
75520;SDS011;64102;48.628;9.002;2023-12-07T13:04:54;4.80;;;0.30;;
75520;SDS011;64102;48.628;9.002;2023-12-07T13:07:21;3.20;;;0.20;;
75520;SDS011;64102;48.628;9.002;2023-12-07T13:09:46;4.50;;;0.38;;
75520;SDS011;64102;48.628;9.002;2023-12-07T13:12:12;3.87;;;0.20;;
75520;SDS011;64102;48.628;9.002;2023-12-07T13:14:37;4.43;;;0.30;;
75520;SDS011;64102;48.628;9.002;2023-12-07T13:17:04;4.50;;;0.30;;
75520;SDS011;64102;48.628;9.002;2023-12-07T13:19:32;3.67;;;0.38;;
75520;SDS011;64102;48.628;9.002;2023-12-07T13:21:58;6.78;;;0.30;;
75520;SDS011;64102;48.628;9.002;2023-12-07T13:24:23;5.50;;;0.40;;
75520;SDS011;64102;48.628;9.002;2023-12-07T13:26:48;4.27;;;0.30;;
75520;SDS011;64102;48.628;9.002;2023-12-07T13:29:14;3.00;;;0.13;;
75520;SDS011;64102;48.628;9.002;2023-12-07T13:31:39;2.93;;;0.20;;
75520;SDS011;64102;48.628;9.002;2023-12-07T13:34:05;3.85;;;0.20;;
75520;SDS011;64102;48.628;9.002;2023-12-07T13:36:31;3.70;;;0.22;;
75520;SDS011;64102;48.628;9.002;2023-12-07T13:38:58;3.92;;;0.28;;
75520;SDS011;64102;48.628;9.002;2023-12-07T13:41:24;4.00;;;0.22;;
75520;SDS011;64102;48.628;9.002;2023-12-07T13:43:49;2.87;;;0.10;;
75520;SDS011;64102;48.628;9.002;2023-12-07T13:46:16;3.60;;;0.10;;
75520;SDS011;64102;48.628;9.002;2023-12-07T13:48:42;2.33;;;0.10;;
75520;SDS011;64102;48.628;9.002;2023-12-07T13:51:08;4.10;;;0.20;;
75520;SDS011;64102;48.628;9.002;2023-12-07T13:53:33;2.00;;;0.10;;
75520;SDS011;64102;48.628;9.002;2023-12-07T13:55:59;2.53;;;0.10;;
75520;SDS011;64102;48.628;9.002;2023-12-07T13:58:25;3.30;;;0.10;;
75520;SDS011;64102;48.628;9.002;2023-12-07T14:00:50;2.67;;;0.10;;
75520;SDS011;64102;48.628;9.002;2023-12-07T14:03:16;2.92;;;0.10;;
75520;SDS011;64102;48.628;9.002;2023-12-07T14:05:41;2.47;;;0.10;;
75520;SDS011;64102;48.628;9.002;2023-12-07T14:08:07;3.27;;;0.10;;
75520;SDS011;64102;48.628;9.002;2023-12-07T14:10:33;3.38;;;0.10;;
75520;SDS011;64102;48.628;9.002;2023-12-07T14:12:59;2.10;;;0.10;;
75520;SDS011;64102;48.628;9.002;2023-12-07T14:15:25;1.77;;;0.10;;
75520;SDS011;64102;48.628;9.002;2023-12-07T14:17:50;2.50;;;0.20;;
75520;SDS011;64102;48.628;9.002;2023-12-07T14:20:15;2.30;;;0.10;;
75520;SDS011;64102;48.628;9.002;2023-12-07T14:22:41;1.65;;;0.10;;
75520;SDS011;64102;48.628;9.002;2023-12-07T14:25:06;2.40;;;0.10;;
75520;SDS011;64102;48.628;9.002;2023-12-07T14:27:31;2.65;;;0.13;;
75520;SDS011;64102;48.628;9.002;2023-12-07T14:29:57;1.37;;;0.00;;
75520;SDS011;64102;48.628;9.002;2023-12-07T14:32:22;1.10;;;0.07;;
75520;SDS011;64102;48.628;9.002;2023-12-07T14:34:47;3.30;;;0.10;;
75520;SDS011;64102;48.628;9.002;2023-12-07T14:37:13;2.27;;;0.00;;
75520;SDS011;64102;48.628;9.002;2023-12-07T14:39:41;3.03;;;0.10;;
75520;SDS011;64102;48.628;9.002;2023-12-07T14:42:06;2.92;;;0.10;;